createdAt,value
2023-03-12T00:00:27.991Z,7.00
2023-03-12T00:04:34.658Z,6.97
2023-03-12T00:08:39.080Z,6.30
2023-03-12T00:12:46.266Z,7.43
2023-03-12T00:16:49.572Z,6.10
2023-03-12T00:20:56.610Z,7.47
2023-03-12T00:24:59.755Z,6.80
2023-03-12T00:29:04.232Z,6.80
2023-03-12T00:33:07.821Z,5.83
2023-03-12T00:37:11.346Z,6.90
2023-03-12T00:41:16.161Z,6.73
2023-03-12T00:45:20.646Z,6.93
2023-03-12T00:49:23.688Z,7.07
2023-03-12T00:53:30.380Z,6.63
2023-03-12T00:57:33.485Z,6.60
2023-03-12T01:01:40.141Z,6.97
2023-03-12T01:05:45.010Z,6.50
2023-03-12T01:09:48.060Z,6.37
2023-03-12T01:13:51.121Z,6.80
2023-03-12T01:17:56.724Z,7.20
2023-03-12T01:22:04.184Z,7.13
2023-03-12T01:26:23.743Z,6.63
2023-03-12T01:30:26.810Z,6.30
2023-03-12T01:34:33.534Z,6.53
2023-03-12T01:38:36.639Z,6.70
2023-03-12T01:42:39.960Z,7.13
2023-03-12T01:46:46.052Z,6.80
2023-03-12T01:50:51.031Z,6.10
2023-03-12T01:55:04.042Z,5.73
2023-03-12T01:59:12.264Z,6.77
2023-03-12T02:03:16.015Z,7.07
2023-03-12T02:07:20.603Z,7.10
2023-03-12T02:11:23.610Z,6.63
2023-03-12T02:15:28.431Z,7.10
2023-03-12T02:19:45.691Z,6.17
2023-03-12T02:23:59.029Z,5.93
2023-03-12T02:28:05.684Z,6.80
2023-03-12T02:32:09.895Z,6.27
2023-03-12T02:36:14.971Z,6.80
2023-03-12T02:40:26.208Z,6.83
2023-03-12T02:44:33.439Z,6.50
2023-03-12T02:48:36.736Z,6.40
2023-03-12T02:52:40.286Z,6.57
2023-03-12T02:56:45.818Z,5.93
2023-03-12T03:00:50.521Z,6.57
2023-03-12T03:04:59.708Z,6.40
2023-03-12T03:09:06.723Z,6.27
2023-03-12T03:13:10.063Z,7.00
2023-03-12T03:17:14.467Z,6.33
2023-03-12T03:21:18.480Z,7.83
2023-03-12T03:25:23.702Z,6.90
2023-03-12T03:29:26.712Z,6.00
2023-03-12T03:33:33.694Z,6.50
2023-03-12T03:37:36.791Z,6.33
2023-03-12T03:41:39.898Z,6.33
2023-03-12T03:45:47.070Z,6.80
2023-03-12T03:49:55.330Z,7.83
2023-03-12T03:54:02.822Z,6.60
2023-03-12T03:58:07.771Z,7.47
2023-03-12T04:02:11.131Z,7.70
2023-03-12T04:06:16.646Z,6.53
2023-03-12T04:10:21.621Z,6.90
2023-03-12T04:14:27.314Z,7.43
2023-03-12T04:18:30.385Z,7.33
2023-03-12T04:22:34.855Z,7.47
2023-03-12T04:26:39.142Z,7.17
2023-03-12T04:30:42.159Z,6.53
2023-03-12T04:34:48.241Z,6.87
2023-03-12T04:38:52.655Z,7.17
2023-03-12T04:42:55.938Z,7.63
2023-03-12T04:46:59.057Z,7.20
2023-03-12T04:51:03.311Z,6.80
2023-03-12T04:55:09.370Z,6.73
2023-03-12T04:59:14.555Z,6.77
2023-03-12T05:03:20.713Z,7.73
2023-03-12T05:07:26.403Z,6.53
2023-03-12T05:11:32.622Z,7.27
2023-03-12T05:15:38.285Z,7.23
2023-03-12T05:19:41.301Z,6.80
2023-03-12T05:23:47.460Z,6.50
2023-03-12T05:27:51.901Z,6.90
2023-03-12T05:31:55.132Z,6.53
2023-03-12T05:36:02.032Z,6.73
2023-03-12T05:40:07.861Z,7.17
2023-03-12T05:44:16.134Z,6.37
2023-03-12T05:48:23.633Z,6.60
2023-03-12T05:52:26.764Z,6.33
2023-03-12T05:56:30.144Z,6.40
2023-03-12T06:00:39.254Z,6.13
2023-03-12T06:04:42.286Z,6.20
2023-03-12T06:08:45.347Z,7.23
2023-03-12T06:12:49.951Z,6.83
2023-03-12T06:16:56.849Z,7.10
2023-03-12T06:21:10.338Z,6.57
2023-03-12T06:25:13.425Z,7.27
2023-03-12T06:29:18.567Z,7.80
2023-03-12T06:33:23.237Z,7.17
2023-03-12T06:37:26.333Z,7.07
2023-03-12T06:41:32.473Z,8.23
2023-03-12T06:45:35.524Z,7.37
2023-03-12T06:49:42.519Z,7.67
2023-03-12T06:53:49.448Z,8.50
2023-03-12T06:57:52.461Z,8.43
2023-03-12T07:01:55.828Z,9.50
2023-03-12T07:06:01.690Z,8.10
2023-03-12T07:10:09.091Z,7.37
2023-03-12T07:14:12.153Z,7.40
2023-03-12T07:18:15.402Z,7.07
2023-03-12T07:22:22.284Z,7.27
2023-03-12T07:26:25.514Z,6.97
2023-03-12T07:30:28.789Z,6.47
2023-03-12T07:34:35.188Z,6.53
2023-03-12T07:38:42.727Z,6.40
2023-03-12T07:42:46.886Z,6.23
2023-03-12T07:46:50.167Z,6.60
2023-03-12T07:50:55.809Z,6.17
2023-03-12T07:55:00.325Z,6.17
2023-03-12T07:59:07.750Z,5.60
2023-03-12T08:03:13.654Z,6.20
2023-03-12T08:07:17.500Z,5.73
2023-03-12T08:11:26.185Z,6.07
2023-03-12T08:15:31.846Z,5.90
2023-03-12T08:19:35.132Z,5.73
2023-03-12T08:23:38.180Z,6.30
2023-03-12T08:27:46.005Z,5.07
2023-03-12T08:32:04.225Z,5.30
2023-03-12T08:36:11.618Z,5.20
2023-03-12T08:40:15.223Z,5.20
2023-03-12T08:44:22.936Z,4.87
2023-03-12T08:48:39.690Z,3.87
2023-03-12T08:52:42.941Z,4.00
2023-03-12T08:56:52.101Z,3.77
2023-03-12T09:00:58.596Z,3.40
2023-03-12T09:05:02.076Z,3.33
2023-03-12T09:09:06.069Z,2.83
2023-03-12T09:13:10.557Z,2.93
2023-03-12T09:17:15.029Z,2.87
2023-03-12T09:21:19.853Z,2.60
2023-03-12T09:25:23.775Z,3.20
2023-03-12T09:29:26.934Z,3.43
2023-03-12T09:33:36.285Z,2.30
2023-03-12T09:37:45.969Z,2.90
2023-03-12T09:41:50.142Z,2.80
2023-03-12T09:45:56.576Z,2.60
2023-03-12T09:50:09.202Z,2.93
2023-03-12T09:54:25.800Z,2.63
2023-03-12T09:58:39.591Z,3.20
2023-03-12T10:03:40.857Z,3.17
2023-03-12T10:07:53.514Z,3.27
2023-03-12T10:12:02.937Z,3.07
2023-03-12T10:16:16.242Z,3.20
2023-03-12T10:20:55.774Z,3.73
2023-03-12T10:25:12.661Z,3.50
2023-03-12T10:29:22.523Z,3.63
2023-03-12T10:33:32.178Z,4.57
2023-03-12T10:37:41.804Z,4.27
2023-03-12T10:41:48.066Z,4.30
2023-03-12T10:46:02.957Z,4.78
2023-03-12T10:50:21.191Z,5.23
2023-03-12T10:54:35.364Z,3.57
2023-03-12T10:58:44.386Z,4.87
2023-03-12T11:02:51.411Z,6.07
2023-03-12T11:07:25.021Z,4.63
2023-03-12T11:11:34.216Z,5.93
2023-03-12T11:15:50.675Z,5.23
2023-03-12T11:19:57.041Z,6.20
2023-03-12T11:24:11.758Z,7.30
2023-03-12T11:28:21.878Z,7.67
2023-03-12T11:32:32.415Z,7.30
2023-03-12T11:36:51.139Z,9.03
2023-03-12T11:41:07.252Z,8.37
2023-03-12T11:45:20.152Z,8.00
2023-03-12T11:49:39.696Z,7.33
2023-03-12T11:54:13.210Z,7.17
2023-03-12T11:58:31.703Z,7.10
2023-03-12T12:03:06.553Z,8.00
2023-03-12T12:07:20.931Z,6.83
2023-03-12T12:11:32.350Z,7.50
2023-03-12T12:15:44.707Z,6.97
2023-03-12T12:20:09.407Z,6.97
2023-03-12T12:24:30.562Z,6.27
2023-03-12T12:28:55.536Z,7.00
2023-03-12T12:33:26.448Z,59.20
2023-03-12T12:37:53.312Z,135.75
2023-03-12T12:42:07.100Z,27.57
2023-03-12T12:46:14.965Z,12.50
2023-03-12T12:50:31.434Z,10.73
2023-03-12T12:54:42.646Z,8.30
2023-03-12T12:59:07.729Z,9.37
2023-03-12T13:03:17.580Z,109.57
2023-03-12T13:07:35.534Z,138.10
2023-03-12T13:11:42.763Z,22.80
2023-03-12T13:15:49.420Z,12.13
2023-03-12T13:20:01.976Z,8.30
2023-03-12T13:24:19.667Z,10.00
2023-03-12T13:28:35.437Z,18.20
2023-03-12T13:33:14.183Z,13.43
2023-03-12T13:37:44.992Z,11.83
2023-03-12T13:41:54.224Z,11.20
2023-03-12T13:46:08.709Z,9.67
2023-03-12T13:50:16.565Z,13.27
2023-03-12T13:54:20.838Z,11.23
2023-03-12T13:58:29.522Z,24.07
2023-03-12T14:02:36.259Z,17.57
2023-03-12T14:07:04.660Z,7.77
2023-03-12T14:11:34.636Z,6.70
2023-03-12T14:15:47.445Z,8.00
2023-03-12T14:19:57.398Z,7.93
2023-03-12T14:24:05.054Z,7.90
2023-03-12T14:28:15.012Z,7.47
2023-03-12T14:32:21.807Z,7.33
2023-03-12T14:36:33.439Z,7.90
2023-03-12T14:40:46.170Z,8.70
2023-03-12T14:45:01.113Z,9.13
2023-03-12T14:49:04.231Z,8.87
2023-03-12T14:53:13.756Z,9.83
2023-03-12T14:57:24.658Z,10.00
2023-03-12T15:01:34.259Z,9.93
2023-03-12T15:05:40.291Z,9.77
2023-03-12T15:09:47.525Z,10.38
2023-03-12T15:13:57.315Z,10.83
2023-03-12T15:18:13.906Z,11.10
2023-03-12T15:22:20.823Z,9.68
2023-03-12T15:26:35.802Z,10.93
2023-03-12T15:30:44.254Z,11.48
2023-03-12T15:34:48.211Z,10.20
2023-03-12T15:38:56.753Z,11.03
2023-03-12T15:43:03.941Z,10.80
2023-03-12T15:47:20.446Z,11.82
2023-03-12T15:51:32.834Z,11.03
2023-03-12T15:55:37.071Z,11.37
2023-03-12T15:59:42.422Z,12.53
2023-03-12T16:03:47.341Z,11.73
2023-03-12T16:07:50.940Z,10.73
2023-03-12T16:11:56.598Z,13.52
2023-03-12T16:16:00.783Z,17.40
2023-03-12T16:20:11.424Z,11.50
2023-03-12T16:24:20.523Z,12.20
2023-03-12T16:28:25.065Z,13.13
2023-03-12T16:32:33.250Z,14.93
2023-03-12T16:36:43.328Z,13.68
2023-03-12T16:40:52.499Z,13.02
2023-03-12T16:44:59.303Z,12.25
2023-03-12T16:49:04.230Z,12.03
2023-03-12T16:53:12.714Z,10.40
2023-03-12T16:57:24.220Z,10.43
2023-03-12T17:01:29.452Z,9.80
2023-03-12T17:05:33.939Z,14.43
2023-03-12T17:09:38.417Z,10.00
2023-03-12T17:13:41.623Z,9.50
2023-03-12T17:17:45.052Z,9.52
2023-03-12T17:21:49.213Z,11.32
2023-03-12T17:25:53.682Z,12.13
2023-03-12T17:29:56.854Z,11.53
2023-03-12T17:34:03.389Z,11.60
2023-03-12T17:38:06.996Z,12.07
2023-03-12T17:42:12.617Z,16.70
2023-03-12T17:46:17.308Z,13.55
2023-03-12T17:50:23.457Z,12.50
2023-03-12T17:54:28.904Z,12.53
2023-03-12T17:58:33.340Z,12.07
2023-03-12T18:02:41.591Z,12.17
2023-03-12T18:06:44.893Z,12.75
2023-03-12T18:10:49.876Z,14.37
2023-03-12T18:14:54.355Z,16.33
2023-03-12T18:18:57.571Z,15.93
2023-03-12T18:23:02.134Z,18.63
2023-03-12T18:27:08.040Z,18.23
2023-03-12T18:31:14.941Z,23.50
2023-03-12T18:35:18.248Z,20.50
2023-03-12T18:39:24.522Z,18.97
2023-03-12T18:43:28.892Z,21.70
2023-03-12T18:47:39.459Z,27.43
2023-03-12T18:51:42.963Z,22.65
2023-03-12T18:55:55.308Z,20.83
2023-03-12T18:59:59.454Z,20.50
2023-03-12T19:04:03.913Z,19.57
2023-03-12T19:08:08.815Z,18.80
2023-03-12T19:12:12.018Z,18.87
2023-03-12T19:16:22.300Z,21.03
2023-03-12T19:20:29.780Z,20.77
2023-03-12T19:24:33.219Z,21.77
2023-03-12T19:28:36.929Z,22.00
2023-03-12T19:32:44.154Z,20.30
2023-03-12T19:36:49.162Z,21.80
2023-03-12T19:40:55.289Z,21.05
2023-03-12T19:44:58.634Z,21.57
2023-03-12T19:49:01.763Z,23.37
2023-03-12T19:53:09.605Z,22.57
2023-03-12T19:57:13.016Z,22.27
2023-03-12T20:01:18.409Z,23.23
2023-03-12T20:05:21.680Z,22.20
2023-03-12T20:09:26.270Z,21.57
2023-03-12T20:13:31.012Z,23.17
2023-03-12T20:17:41.882Z,23.67
2023-03-12T20:21:48.339Z,22.97
2023-03-12T20:25:57.667Z,23.20
2023-03-12T20:30:03.790Z,23.83
2023-03-12T20:34:09.181Z,24.83
2023-03-12T20:38:21.306Z,21.60
2023-03-12T20:42:26.354Z,24.07
2023-03-12T20:46:32.197Z,28.20
2023-03-12T20:50:38.959Z,24.37
2023-03-12T20:54:44.326Z,22.83
2023-03-12T20:58:49.114Z,21.93
2023-03-12T21:02:52.681Z,22.00
2023-03-12T21:06:56.394Z,23.43
2023-03-12T21:10:59.463Z,23.30
2023-03-12T21:15:07.460Z,24.63
2023-03-12T21:19:10.484Z,23.57
2023-03-12T21:23:13.614Z,23.57
2023-03-12T21:27:17.071Z,23.43
2023-03-12T21:31:24.568Z,22.87
2023-03-12T21:35:29.777Z,22.90
2023-03-12T21:39:32.928Z,23.37
2023-03-12T21:43:39.314Z,22.17
2023-03-12T21:47:44.060Z,21.80
2023-03-12T21:51:47.125Z,20.80
2023-03-12T21:55:57.799Z,20.63
2023-03-12T22:00:02.667Z,20.27
2023-03-12T22:04:10.737Z,20.43
2023-03-12T22:08:14.274Z,19.93
2023-03-12T22:12:17.306Z,21.27
2023-03-12T22:16:23.683Z,20.97
2023-03-12T22:20:28.082Z,20.00
2023-03-12T22:24:34.022Z,20.80
2023-03-12T22:28:37.890Z,19.90
2023-03-12T22:32:41.276Z,24.53
2023-03-12T22:36:47.758Z,22.87
2023-03-12T22:40:55.492Z,23.63
2023-03-12T22:45:04.974Z,21.50
2023-03-12T22:49:10.408Z,20.07
2023-03-12T22:53:14.834Z,18.20
2023-03-12T22:57:22.826Z,15.80
2023-03-12T23:01:27.701Z,12.47
2023-03-12T23:05:32.573Z,9.03
2023-03-12T23:09:39.694Z,9.47
2023-03-12T23:13:45.608Z,8.40
2023-03-12T23:17:50.433Z,6.90
2023-03-12T23:21:53.515Z,6.55
2023-03-12T23:25:59.723Z,7.25
2023-03-12T23:30:04.427Z,6.85
2023-03-12T23:34:10.420Z,6.35
2023-03-12T23:38:19.610Z,6.60
2023-03-12T23:42:24.276Z,5.30
2023-03-12T23:46:28.327Z,5.33
2023-03-12T23:50:33.972Z,5.30
2023-03-12T23:54:37.043Z,4.40
2023-03-12T23:58:44.868Z,4.63
